createdAt,value
2022-09-26T00:04:45.992Z,10.20
2022-09-26T00:09:47.477Z,10.37
2022-09-26T00:14:49.184Z,10.44
2022-09-26T00:19:50.710Z,10.50
2022-09-26T00:24:52.571Z,10.47
2022-09-26T00:29:54.227Z,10.50
2022-09-26T00:34:55.800Z,10.56
2022-09-26T00:39:57.543Z,10.50
2022-09-26T00:44:59.974Z,10.40
2022-09-26T00:50:07.290Z,10.49
2022-09-26T00:55:11.607Z,10.59
2022-09-26T01:00:14.962Z,10.59
2022-09-26T01:05:22.330Z,10.48
2022-09-26T01:10:24.105Z,10.35
2022-09-26T01:15:25.632Z,10.38
2022-09-26T01:20:56.548Z,10.29
2022-09-26T01:26:22.340Z,10.24
2022-09-26T01:31:49.155Z,10.40
2022-09-26T01:37:11.439Z,10.67
2022-09-26T01:42:45.779Z,10.82
2022-09-26T01:48:12.522Z,10.88
2022-09-26T01:53:34.420Z,10.93
2022-09-26T01:58:54.242Z,10.96
2022-09-26T02:04:02.015Z,10.93
2022-09-26T02:09:15.066Z,10.88
2022-09-26T02:14:25.157Z,10.96
2022-09-26T02:19:30.633Z,11.00
2022-09-26T02:24:32.526Z,11.03
2022-09-26T02:29:34.391Z,11.06
2022-09-26T02:34:36.529Z,11.08
2022-09-26T02:39:38.235Z,11.11
2022-09-26T02:44:50.251Z,11.15
2022-09-26T02:50:19.892Z,11.24
2022-09-26T02:55:30.725Z,11.35
2022-09-26T03:00:47.802Z,11.36
2022-09-26T03:05:54.851Z,11.52
2022-09-26T03:11:00.981Z,11.64
2022-09-26T03:16:03.554Z,11.78
2022-09-26T03:21:07.332Z,11.80
2022-09-26T03:26:12.757Z,11.56
2022-09-26T03:31:24.256Z,11.42
2022-09-26T03:36:55.083Z,11.45
2022-09-26T03:41:58.009Z,11.30
2022-09-26T03:47:06.225Z,11.21
2022-09-26T03:52:14.282Z,11.10
2022-09-26T03:57:17.985Z,11.04
2022-09-26T04:02:28.113Z,11.08
2022-09-26T04:07:45.559Z,11.02
2022-09-26T04:12:47.108Z,10.87
2022-09-26T04:17:50.565Z,11.48
2022-09-26T04:22:57.645Z,11.86
2022-09-26T04:27:59.154Z,11.44
2022-09-26T04:33:01.386Z,11.10
2022-09-26T04:38:08.612Z,10.97
2022-09-26T04:43:11.170Z,10.91
2022-09-26T04:48:12.734Z,10.93
2022-09-26T04:53:44.085Z,10.97
2022-09-26T04:59:05.993Z,10.95
2022-09-26T05:04:17.532Z,10.90
2022-09-26T05:09:19.131Z,10.84
2022-09-26T05:14:27.908Z,10.83
2022-09-26T05:19:29.496Z,10.80
2022-09-26T05:24:49.311Z,10.86
2022-09-26T05:29:51.765Z,10.89
2022-09-26T05:34:53.324Z,10.85
2022-09-26T05:39:56.518Z,10.89
2022-09-26T05:45:01.703Z,10.98
2022-09-26T05:50:04.348Z,10.98
2022-09-26T05:55:06.420Z,11.10
2022-09-26T06:00:36.693Z,11.35
2022-09-26T06:05:38.430Z,11.36
2022-09-26T06:10:50.844Z,11.52
2022-09-26T06:15:53.210Z,11.58
2022-09-26T06:20:55.262Z,11.61
2022-09-26T06:25:57.953Z,11.79
2022-09-26T06:30:59.879Z,11.89
2022-09-26T06:36:24.908Z,12.16
2022-09-26T06:41:26.770Z,12.37
2022-09-26T06:46:28.936Z,12.57
2022-09-26T06:51:32.932Z,12.90
2022-09-26T06:56:34.477Z,13.23
2022-09-26T07:01:36.410Z,13.35
2022-09-26T07:06:44.565Z,13.63
2022-09-26T07:12:12.895Z,13.76
2022-09-26T07:17:18.584Z,13.92
2022-09-26T07:22:39.153Z,14.18
2022-09-26T07:27:41.325Z,14.03
2022-09-26T07:32:43.204Z,14.10
2022-09-26T07:37:58.877Z,13.94
2022-09-26T07:43:18.963Z,14.07
2022-09-26T07:48:23.585Z,14.13
2022-09-26T07:53:43.568Z,14.32
2022-09-26T07:59:05.047Z,14.40
2022-09-26T08:04:26.811Z,14.53
2022-09-26T08:09:28.965Z,14.32
2022-09-26T08:14:49.642Z,14.28
2022-09-26T08:20:05.127Z,14.14
2022-09-26T08:25:07.595Z,13.95
2022-09-26T08:30:15.186Z,13.74
2022-09-26T08:35:16.799Z,13.64
2022-09-26T08:40:26.553Z,13.61
2022-09-26T08:46:11.619Z,13.52
2022-09-26T08:51:42.839Z,13.33
2022-09-26T08:56:53.310Z,13.24
2022-09-26T09:02:04.253Z,13.29
2022-09-26T09:07:21.978Z,13.23
2022-09-26T09:12:59.081Z,13.20
2022-09-26T09:19:18.652Z,13.22
2022-09-26T09:24:46.413Z,12.93
2022-09-26T09:30:17.096Z,12.96
2022-09-26T09:36:05.321Z,12.77
2022-09-26T09:41:25.429Z,12.76
2022-09-26T09:46:27.351Z,12.69
2022-09-26T09:52:00.251Z,12.75
2022-09-26T09:57:23.095Z,12.65
2022-09-26T10:02:43.632Z,12.75
2022-09-26T10:07:55.081Z,12.80
2022-09-26T10:13:16.275Z,12.72
2022-09-26T10:18:57.167Z,12.75
2022-09-26T10:24:03.572Z,12.83
2022-09-26T10:29:29.953Z,12.79
2022-09-26T10:34:34.626Z,12.87
2022-09-26T10:39:39.353Z,12.97
2022-09-26T10:44:41.530Z,13.07
2022-09-26T10:49:57.583Z,13.13
2022-09-26T10:55:32.798Z,13.14
2022-09-26T11:00:34.521Z,13.18
2022-09-26T11:05:38.694Z,13.21
2022-09-26T11:10:51.815Z,13.34
2022-09-26T11:16:12.173Z,13.58
2022-09-26T11:21:38.235Z,13.82
2022-09-26T11:26:52.463Z,13.97
2022-09-26T11:32:00.048Z,14.27
2022-09-26T11:37:34.235Z,14.37
2022-09-26T11:42:47.406Z,14.41
2022-09-26T11:47:51.994Z,14.31
2022-09-26T11:53:33.862Z,14.54
2022-09-26T11:59:10.552Z,14.72
2022-09-26T12:04:35.145Z,14.92
2022-09-26T12:09:42.583Z,15.00
2022-09-26T12:15:01.032Z,15.18
2022-09-26T12:20:23.038Z,15.29
2022-09-26T12:25:37.481Z,15.05
2022-09-26T12:30:58.231Z,15.07
2022-09-26T12:36:05.761Z,14.86
2022-09-26T12:41:13.216Z,15.15
2022-09-26T12:46:31.294Z,14.93
2022-09-26T12:51:42.922Z,14.68
2022-09-26T12:56:50.339Z,14.64
2022-09-26T13:02:21.030Z,14.31
2022-09-26T13:07:40.663Z,13.90
2022-09-26T13:12:55.084Z,13.67
2022-09-26T13:18:04.464Z,13.44
2022-09-26T13:23:26.184Z,13.33
2022-09-26T13:28:47.542Z,13.05
2022-09-26T13:34:09.098Z,12.81
2022-09-26T13:39:16.269Z,12.85
2022-09-26T13:44:28.107Z,12.99
2022-09-26T13:49:32.623Z,13.05
2022-09-26T13:54:55.151Z,13.04
2022-09-26T13:59:56.761Z,13.04
2022-09-26T14:05:01.058Z,13.00
2022-09-26T14:10:02.524Z,12.97
2022-09-26T14:15:26.003Z,12.98
2022-09-26T14:20:33.872Z,13.18
2022-09-26T14:25:44.582Z,13.29
2022-09-26T14:31:23.400Z,13.29
2022-09-26T14:36:33.299Z,13.28
2022-09-26T14:41:36.104Z,13.22
2022-09-26T14:46:41.275Z,13.19
2022-09-26T14:51:48.705Z,13.15
2022-09-26T14:57:00.763Z,13.06
2022-09-26T15:02:14.318Z,12.98
2022-09-26T15:07:23.600Z,12.91
2022-09-26T15:12:41.267Z,13.04
2022-09-26T15:17:50.103Z,13.07
2022-09-26T15:22:54.182Z,13.04
2022-09-26T15:27:56.725Z,13.07
2022-09-26T15:33:00.252Z,12.99
2022-09-26T15:38:09.372Z,13.01
2022-09-26T15:43:18.991Z,13.00
2022-09-26T15:48:20.499Z,13.02
2022-09-26T15:53:40.096Z,13.01
2022-09-26T15:58:51.353Z,13.00
2022-09-26T16:03:52.833Z,12.93
2022-09-26T16:09:23.171Z,12.87
2022-09-26T16:14:31.059Z,12.87
2022-09-26T16:19:34.909Z,12.84
2022-09-26T16:24:36.627Z,12.80
2022-09-26T16:29:38.198Z,12.74
2022-09-26T16:34:39.790Z,12.74
2022-09-26T16:39:41.449Z,12.66
2022-09-26T16:44:51.874Z,12.68
2022-09-26T16:49:53.416Z,12.65
2022-09-26T16:54:56.901Z,12.45
2022-09-26T17:00:01.746Z,12.48
2022-09-26T17:05:03.313Z,12.44
2022-09-26T17:10:05.291Z,12.48
2022-09-26T17:15:09.106Z,12.49
2022-09-26T17:20:13.975Z,12.42
2022-09-26T17:25:16.150Z,12.40
2022-09-26T17:30:19.182Z,12.35
2022-09-26T17:35:31.218Z,12.22
2022-09-26T17:40:33.425Z,12.17
2022-09-26T17:45:49.315Z,12.14
2022-09-26T17:50:51.255Z,12.11
2022-09-26T17:55:52.881Z,12.08
2022-09-26T18:00:54.634Z,12.02
2022-09-26T18:05:56.415Z,12.08
2022-09-26T18:11:02.224Z,12.02
2022-09-26T18:16:04.046Z,12.01
2022-09-26T18:21:09.140Z,12.01
2022-09-26T18:26:25.867Z,11.99
2022-09-26T18:31:33.033Z,11.98
2022-09-26T18:36:34.752Z,12.03
2022-09-26T18:41:37.649Z,12.04
2022-09-26T18:46:39.415Z,12.08
2022-09-26T18:51:41.627Z,12.06
2022-09-26T18:56:43.347Z,11.98
2022-09-26T19:01:45.167Z,12.16
2022-09-26T19:06:52.051Z,12.12
2022-09-26T19:11:53.519Z,12.11
2022-09-26T19:16:55.962Z,12.11
2022-09-26T19:22:00.719Z,12.11
2022-09-26T19:27:06.830Z,12.10
2022-09-26T19:32:18.944Z,12.12
2022-09-26T19:37:20.805Z,12.11
2022-09-26T19:42:22.509Z,12.16
2022-09-26T19:47:24.178Z,12.23
2022-09-26T19:52:25.845Z,12.25
2022-09-26T19:57:27.721Z,12.21
2022-09-26T20:02:32.157Z,12.25
2022-09-26T20:07:34.005Z,12.19
2022-09-26T20:12:35.649Z,12.18
2022-09-26T20:17:37.683Z,12.24
2022-09-26T20:22:39.978Z,12.35
2022-09-26T20:27:41.606Z,12.40
2022-09-26T20:32:43.257Z,12.46
2022-09-26T20:37:44.941Z,12.50
2022-09-26T20:42:50.845Z,12.55
2022-09-26T20:47:52.491Z,12.50
2022-09-26T20:52:54.077Z,12.43
2022-09-26T20:57:55.745Z,12.39
2022-09-26T21:02:57.431Z,12.25
2022-09-26T21:08:00.500Z,12.18
2022-09-26T21:13:02.484Z,12.22
2022-09-26T21:18:04.386Z,12.21
2022-09-26T21:23:08.602Z,12.33
2022-09-26T21:28:24.553Z,12.28
2022-09-26T21:33:26.499Z,12.30
2022-09-26T21:38:28.303Z,12.30
2022-09-26T21:43:36.510Z,12.29
2022-09-26T21:48:38.356Z,12.23
2022-09-26T21:53:55.542Z,12.27
2022-09-26T21:58:57.857Z,12.40
2022-09-26T22:03:59.483Z,12.45
2022-09-26T22:09:01.242Z,12.50
2022-09-26T22:14:04.415Z,12.58
2022-09-26T22:19:06.134Z,12.50
2022-09-26T22:24:07.748Z,12.56
2022-09-26T22:29:09.391Z,12.49
2022-09-26T22:34:11.091Z,12.34
2022-09-26T22:39:12.746Z,12.17
2022-09-26T22:44:14.393Z,12.03
2022-09-26T22:49:16.047Z,12.14
2022-09-26T22:54:17.808Z,12.00
2022-09-26T22:59:19.538Z,11.77
2022-09-26T23:04:21.132Z,11.70
2022-09-26T23:09:22.754Z,11.68
2022-09-26T23:14:24.348Z,11.76
2022-09-26T23:19:25.996Z,11.85
2022-09-26T23:24:27.746Z,11.85
2022-09-26T23:29:29.373Z,11.86
2022-09-26T23:34:30.957Z,11.85
2022-09-26T23:39:32.618Z,11.90
2022-09-26T23:44:34.319Z,11.78
2022-09-26T23:49:35.965Z,11.77
2022-09-26T23:54:37.710Z,11.79
2022-09-26T23:59:39.337Z,11.66
